createdAt,value
2023-03-20T00:02:42.150Z,13.02
2023-03-20T00:05:44.995Z,12.85
2023-03-20T00:08:49.565Z,12.55
2023-03-20T00:11:55.553Z,12.02
2023-03-20T00:15:13.609Z,11.95
2023-03-20T00:18:19.891Z,12.57
2023-03-20T00:21:23.157Z,11.65
2023-03-20T00:24:26.726Z,11.15
2023-03-20T00:27:29.662Z,11.77
2023-03-20T00:30:34.001Z,11.48
2023-03-20T00:33:38.241Z,11.95
2023-03-20T00:36:41.297Z,10.98
2023-03-20T00:39:44.264Z,12.20
2023-03-20T00:42:50.670Z,10.98
2023-03-20T00:45:54.997Z,12.35
2023-03-20T00:48:57.975Z,11.30
2023-03-20T00:52:02.195Z,11.13
2023-03-20T00:55:05.606Z,10.95
2023-03-20T00:58:11.749Z,10.80
2023-03-20T01:01:17.972Z,11.32
2023-03-20T01:04:21.844Z,10.90
2023-03-20T01:07:25.007Z,10.63
2023-03-20T01:10:31.957Z,10.60
2023-03-20T01:13:34.965Z,10.73
2023-03-20T01:16:39.244Z,10.70
2023-03-20T01:19:42.620Z,11.45
2023-03-20T01:22:45.589Z,10.73
2023-03-20T01:25:48.773Z,10.57
2023-03-20T01:28:52.352Z,10.43
2023-03-20T01:31:57.335Z,9.98
2023-03-20T01:35:02.743Z,10.60
2023-03-20T01:38:13.953Z,10.38
2023-03-20T01:41:18.587Z,11.30
2023-03-20T01:44:29.779Z,10.05
2023-03-20T01:47:36.010Z,9.75
2023-03-20T01:50:39.722Z,9.90
2023-03-20T01:53:52.379Z,9.68
2023-03-20T01:57:00.341Z,10.10
2023-03-20T02:00:06.658Z,9.98
2023-03-20T02:03:21.502Z,9.77
2023-03-20T02:06:45.018Z,9.65
2023-03-20T02:10:10.153Z,9.63
2023-03-20T02:13:33.005Z,9.98
2023-03-20T02:16:36.207Z,9.20
2023-03-20T02:20:05.328Z,9.18
2023-03-20T02:23:46.136Z,9.40
2023-03-20T02:27:03.717Z,9.68
2023-03-20T02:30:40.335Z,8.80
2023-03-20T02:34:23.556Z,9.13
2023-03-20T02:37:54.672Z,9.27
2023-03-20T02:41:05.085Z,9.00
2023-03-20T02:44:13.882Z,9.02
2023-03-20T02:47:25.189Z,8.73
2023-03-20T02:50:36.060Z,8.70
2023-03-20T02:53:49.969Z,8.68
2023-03-20T02:57:01.993Z,9.02
2023-03-20T03:00:13.464Z,9.13
2023-03-20T03:03:20.537Z,8.95
2023-03-20T03:06:27.747Z,8.80
2023-03-20T03:09:36.633Z,9.07
2023-03-20T03:12:43.790Z,8.50
2023-03-20T03:15:50.805Z,8.38
2023-03-20T03:19:06.570Z,7.95
2023-03-20T03:22:10.135Z,8.27
2023-03-20T03:25:14.829Z,8.10
2023-03-20T03:28:27.474Z,7.93
2023-03-20T03:31:32.731Z,8.02
2023-03-20T03:34:38.045Z,7.50
2023-03-20T03:37:49.174Z,8.20
2023-03-20T03:41:00.496Z,7.93
2023-03-20T03:44:13.065Z,7.88
2023-03-20T03:47:21.140Z,7.72
2023-03-20T03:50:29.468Z,7.78
2023-03-20T03:53:40.214Z,7.70
2023-03-20T03:56:47.427Z,7.47
2023-03-20T03:59:53.764Z,7.70
2023-03-20T04:02:59.210Z,8.32
2023-03-20T04:06:05.886Z,7.78
2023-03-20T04:09:08.829Z,7.88
2023-03-20T04:12:32.896Z,8.18
2023-03-20T04:15:36.406Z,7.15
2023-03-20T04:18:41.025Z,7.82
2023-03-20T04:21:45.625Z,6.68
2023-03-20T04:24:48.500Z,7.28
2023-03-20T04:27:53.017Z,7.18
2023-03-20T04:31:25.274Z,6.68
2023-03-20T04:34:46.862Z,7.13
2023-03-20T04:38:03.897Z,6.90
2023-03-20T04:41:09.498Z,6.45
2023-03-20T04:44:13.936Z,6.72
2023-03-20T04:47:19.574Z,6.80
2023-03-20T04:50:22.491Z,6.68
2023-03-20T04:53:27.646Z,6.65
2023-03-20T04:56:31.461Z,6.70
2023-03-20T04:59:49.325Z,6.25
2023-03-20T05:02:53.146Z,6.95
2023-03-20T05:05:56.131Z,7.00
2023-03-20T05:09:00.799Z,6.35
2023-03-20T05:12:06.541Z,6.90
2023-03-20T05:15:19.494Z,6.43
2023-03-20T05:18:40.824Z,7.00
2023-03-20T05:22:02.710Z,6.28
2023-03-20T05:25:35.021Z,6.45
2023-03-20T05:28:48.539Z,6.32
2023-03-20T05:32:09.127Z,6.00
2023-03-20T05:35:35.793Z,6.53
2023-03-20T05:38:48.976Z,6.70
2023-03-20T05:42:12.102Z,6.40
2023-03-20T05:45:33.737Z,6.18
2023-03-20T05:48:48.860Z,6.18
2023-03-20T05:52:08.486Z,6.53
2023-03-20T05:55:23.480Z,6.68
2023-03-20T05:58:58.270Z,6.15
2023-03-20T06:02:10.492Z,6.00
2023-03-20T06:05:18.397Z,6.55
2023-03-20T06:08:26.776Z,6.47
2023-03-20T06:11:31.694Z,6.30
2023-03-20T06:14:34.892Z,5.90
2023-03-20T06:17:42.344Z,6.10
2023-03-20T06:20:53.009Z,5.97
2023-03-20T06:23:55.925Z,5.72
2023-03-20T06:27:00.153Z,6.25
2023-03-20T06:30:04.014Z,5.47
2023-03-20T06:33:11.309Z,5.72
2023-03-20T06:36:30.108Z,6.55
2023-03-20T06:39:39.338Z,5.30
2023-03-20T06:42:46.626Z,5.72
2023-03-20T06:45:51.020Z,5.68
2023-03-20T06:48:58.828Z,5.70
2023-03-20T06:52:03.577Z,5.60
2023-03-20T06:55:08.958Z,5.50
2023-03-20T06:58:11.847Z,5.90
2023-03-20T07:01:19.877Z,5.53
2023-03-20T07:04:22.897Z,5.43
2023-03-20T07:07:30.949Z,5.32
2023-03-20T07:10:34.309Z,5.78
2023-03-20T07:13:38.019Z,5.43
2023-03-20T07:16:51.590Z,5.82
2023-03-20T07:19:54.584Z,5.57
2023-03-20T07:22:58.849Z,5.40
2023-03-20T07:26:05.436Z,5.40
2023-03-20T07:29:08.923Z,5.20
2023-03-20T07:32:12.770Z,6.55
2023-03-20T07:35:24.352Z,8.65
2023-03-20T07:38:28.862Z,8.40
2023-03-20T07:41:42.077Z,8.48
2023-03-20T07:44:46.527Z,7.68
2023-03-20T07:47:49.552Z,7.30
2023-03-20T07:50:52.474Z,7.07
2023-03-20T07:53:56.734Z,6.32
2023-03-20T07:56:59.806Z,6.65
2023-03-20T08:00:04.299Z,5.80
2023-03-20T08:03:14.643Z,5.75
2023-03-20T08:06:17.560Z,5.35
2023-03-20T08:09:21.969Z,4.95
2023-03-20T08:12:24.800Z,4.28
2023-03-20T08:15:27.795Z,4.57
2023-03-20T08:18:30.761Z,4.60
2023-03-20T08:21:34.546Z,4.68
2023-03-20T08:24:38.872Z,5.15
2023-03-20T08:27:41.737Z,4.90
2023-03-20T08:30:45.366Z,4.63
2023-03-20T08:33:48.634Z,4.85
2023-03-20T08:36:52.495Z,4.55
2023-03-20T08:39:56.934Z,4.53
2023-03-20T08:43:00.340Z,4.38
2023-03-20T08:46:03.621Z,4.35
2023-03-20T08:49:06.632Z,4.55
2023-03-20T08:52:09.658Z,3.90
2023-03-20T08:55:16.412Z,4.10
2023-03-20T08:58:19.991Z,4.47
2023-03-20T09:01:23.157Z,3.97
2023-03-20T09:04:26.704Z,3.55
2023-03-20T09:07:29.696Z,4.38
2023-03-20T09:10:34.625Z,3.80
2023-03-20T09:13:37.541Z,4.13
2023-03-20T09:16:40.587Z,4.13
2023-03-20T09:19:44.695Z,3.92
2023-03-20T09:22:47.842Z,3.95
2023-03-20T09:25:52.159Z,3.83
2023-03-20T09:28:55.070Z,4.10
2023-03-20T09:31:58.017Z,3.88
2023-03-20T09:35:00.970Z,4.22
2023-03-20T09:38:03.890Z,3.78
2023-03-20T09:41:13.515Z,3.70
2023-03-20T09:44:28.251Z,3.85
2023-03-20T09:47:39.780Z,3.85
2023-03-20T09:50:50.343Z,3.97
2023-03-20T09:54:01.235Z,3.90
2023-03-20T09:57:07.315Z,3.67
2023-03-20T10:00:16.530Z,3.70
2023-03-20T10:03:23.753Z,3.70
2023-03-20T10:06:26.974Z,3.83
2023-03-20T10:09:31.674Z,4.35
2023-03-20T10:12:57.420Z,4.10
2023-03-20T10:16:06.745Z,4.45
2023-03-20T10:19:23.975Z,3.95
2023-03-20T10:22:29.910Z,3.60
2023-03-20T10:25:35.424Z,3.90
2023-03-20T10:28:47.381Z,3.63
2023-03-20T10:31:58.493Z,4.20
2023-03-20T10:35:14.481Z,3.55
2023-03-20T10:38:34.050Z,3.38
2023-03-20T10:41:40.807Z,3.80
2023-03-20T10:44:51.778Z,4.10
2023-03-20T10:47:56.973Z,3.83
2023-03-20T10:51:03.228Z,3.45
2023-03-20T10:54:11.675Z,3.90
2023-03-20T10:57:19.444Z,3.50
2023-03-20T11:00:27.044Z,3.45
2023-03-20T11:03:32.839Z,3.38
2023-03-20T11:06:43.312Z,3.47
2023-03-20T11:09:46.494Z,3.28
2023-03-20T11:12:52.349Z,3.22
2023-03-20T11:15:57.340Z,3.60
2023-03-20T11:19:09.245Z,3.42
2023-03-20T11:22:25.979Z,3.00
2023-03-20T11:25:35.219Z,3.38
2023-03-20T11:28:40.710Z,3.65
2023-03-20T11:31:45.089Z,3.20
2023-03-20T11:34:48.217Z,3.33
2023-03-20T11:37:53.085Z,3.25
2023-03-20T11:40:56.750Z,3.35
2023-03-20T11:43:59.808Z,3.13
2023-03-20T11:47:06.980Z,3.50
2023-03-20T11:50:27.518Z,3.33
2023-03-20T11:53:33.532Z,3.60
2023-03-20T11:56:37.521Z,3.20
2023-03-20T11:59:41.333Z,2.75
2023-03-20T12:02:46.224Z,3.10
2023-03-20T12:05:49.188Z,3.22
2023-03-20T12:08:55.471Z,3.17
2023-03-20T12:12:02.686Z,3.40
2023-03-20T12:15:16.503Z,2.92
2023-03-20T12:18:27.053Z,3.03
2023-03-20T12:21:34.416Z,3.22
2023-03-20T12:24:42.534Z,3.38
2023-03-20T12:27:51.403Z,3.05
2023-03-20T12:31:05.857Z,3.70
2023-03-20T12:34:13.815Z,2.92
2023-03-20T12:37:18.445Z,2.58
2023-03-20T12:40:32.450Z,2.95
2023-03-20T12:43:43.830Z,3.05
2023-03-20T12:46:56.068Z,2.92
2023-03-20T12:50:14.773Z,2.70
2023-03-20T12:53:32.614Z,2.60
2023-03-20T12:56:54.273Z,2.72
2023-03-20T13:00:17.781Z,2.60
2023-03-20T13:03:41.133Z,2.90
2023-03-20T13:06:53.398Z,2.90
2023-03-20T13:10:08.807Z,2.92
2023-03-20T13:13:19.788Z,2.60
2023-03-20T13:16:35.722Z,3.00
2023-03-20T13:19:44.465Z,2.60
2023-03-20T13:22:59.424Z,2.65
2023-03-20T13:26:14.979Z,3.00
2023-03-20T13:29:25.812Z,2.70
2023-03-20T13:32:43.979Z,2.80
2023-03-20T13:35:53.520Z,2.80
2023-03-20T13:39:04.762Z,3.47
2023-03-20T13:42:13.874Z,3.80
2023-03-20T13:45:31.671Z,4.25
2023-03-20T13:48:37.377Z,2.88
2023-03-20T13:51:45.839Z,3.20
2023-03-20T13:55:10.304Z,2.90
2023-03-20T13:58:29.666Z,2.92
2023-03-20T14:01:44.213Z,3.30
2023-03-20T14:04:51.403Z,3.22
2023-03-20T14:07:57.909Z,2.60
2023-03-20T14:11:15.500Z,2.63
2023-03-20T14:14:26.030Z,2.83
2023-03-20T14:17:31.090Z,2.53
2023-03-20T14:20:36.313Z,2.50
2023-03-20T14:23:44.317Z,3.08
2023-03-20T14:26:51.587Z,3.35
2023-03-20T14:29:54.521Z,2.83
2023-03-20T14:33:01.246Z,2.80
2023-03-20T14:36:20.808Z,2.70
2023-03-20T14:39:42.309Z,2.45
2023-03-20T14:42:56.106Z,2.30
2023-03-20T14:46:04.776Z,2.38
2023-03-20T14:49:26.187Z,2.50
2023-03-20T14:52:49.220Z,2.58
2023-03-20T14:56:02.076Z,2.40
2023-03-20T14:59:08.031Z,2.30
2023-03-20T15:02:27.442Z,2.47
2023-03-20T15:05:33.895Z,2.50
2023-03-20T15:08:43.290Z,2.30
2023-03-20T15:11:47.858Z,2.25
2023-03-20T15:14:57.035Z,2.53
2023-03-20T15:18:06.214Z,2.35
2023-03-20T15:21:14.889Z,2.20
2023-03-20T15:24:23.140Z,2.38
2023-03-20T15:27:29.762Z,2.17
2023-03-20T15:30:38.025Z,2.53
2023-03-20T15:33:43.928Z,2.38
2023-03-20T15:36:47.081Z,2.20
2023-03-20T15:39:52.273Z,2.20
2023-03-20T15:42:57.484Z,2.70
2023-03-20T15:46:17.449Z,2.20
2023-03-20T15:49:23.383Z,2.25
2023-03-20T15:52:31.718Z,2.08
2023-03-20T15:55:36.646Z,2.20
2023-03-20T15:58:40.073Z,2.47
2023-03-20T16:01:45.407Z,2.20
2023-03-20T16:04:52.138Z,2.65
2023-03-20T16:07:55.392Z,2.20
2023-03-20T16:11:01.257Z,2.13
2023-03-20T16:14:05.508Z,2.72
2023-03-20T16:17:13.334Z,2.33
2023-03-20T16:20:17.350Z,2.50
2023-03-20T16:23:34.417Z,2.28
2023-03-20T16:26:42.139Z,2.13
2023-03-20T16:29:45.484Z,2.40
2023-03-20T16:32:57.315Z,2.67
2023-03-20T16:36:02.590Z,2.45
2023-03-20T16:39:09.341Z,2.17
2023-03-20T16:42:24.357Z,2.17
2023-03-20T16:45:31.493Z,2.40
2023-03-20T16:48:37.741Z,2.20
2023-03-20T16:51:44.064Z,2.13
2023-03-20T16:54:47.110Z,2.85
2023-03-20T16:57:53.078Z,3.85
2023-03-20T17:00:59.715Z,3.38
2023-03-20T17:04:19.524Z,3.20
2023-03-20T17:07:25.618Z,3.10
2023-03-20T17:10:30.111Z,3.28
2023-03-20T17:13:33.097Z,3.38
2023-03-20T17:16:36.657Z,2.92
2023-03-20T17:19:41.055Z,2.90
2023-03-20T17:22:43.966Z,2.65
2023-03-20T17:25:49.023Z,3.50
2023-03-20T17:28:52.496Z,3.05
2023-03-20T17:31:55.524Z,3.20
2023-03-20T17:34:59.958Z,3.40
2023-03-20T17:38:03.063Z,3.83
2023-03-20T17:41:06.479Z,3.58
2023-03-20T17:44:10.520Z,4.13
2023-03-20T17:47:16.889Z,3.92
2023-03-20T17:50:24.432Z,3.50
2023-03-20T17:53:29.746Z,3.67
2023-03-20T17:56:33.118Z,4.00
2023-03-20T17:59:36.243Z,3.90
2023-03-20T18:02:39.244Z,4.00
2023-03-20T18:05:43.845Z,4.35
2023-03-20T18:08:46.732Z,4.45
2023-03-20T18:11:49.664Z,4.38
2023-03-20T18:14:52.758Z,4.88
2023-03-20T18:17:55.733Z,5.50
2023-03-20T18:21:00.279Z,4.00
2023-03-20T18:24:03.581Z,5.07
2023-03-20T18:27:07.563Z,4.85
2023-03-20T18:30:16.661Z,4.88
2023-03-20T18:33:25.198Z,4.40
2023-03-20T18:36:29.631Z,4.53
2023-03-20T18:39:32.558Z,5.43
2023-03-20T18:42:35.606Z,4.88
2023-03-20T18:45:39.702Z,4.72
2023-03-20T18:48:42.691Z,4.88
2023-03-20T18:51:47.420Z,4.93
2023-03-20T18:54:51.944Z,4.88
2023-03-20T18:57:55.264Z,5.13
2023-03-20T19:00:59.682Z,5.60
2023-03-20T19:04:02.760Z,5.38
2023-03-20T19:07:07.776Z,5.70
2023-03-20T19:10:29.536Z,5.38
2023-03-20T19:13:32.693Z,5.97
2023-03-20T19:16:38.121Z,5.65
2023-03-20T19:19:41.263Z,6.45
2023-03-20T19:22:45.657Z,6.15
2023-03-20T19:25:50.650Z,5.05
2023-03-20T19:28:54.679Z,5.85
2023-03-20T19:31:58.671Z,6.05
2023-03-20T19:38:26.128Z,6.50
2023-03-20T19:41:29.827Z,6.43
2023-03-20T19:44:32.771Z,6.07
2023-03-20T19:47:35.742Z,6.28
2023-03-20T19:50:41.532Z,6.32
2023-03-20T19:53:48.607Z,7.05
2023-03-20T19:56:51.494Z,6.50
2023-03-20T19:59:54.362Z,6.75
2023-03-20T20:02:57.890Z,6.55
2023-03-20T20:06:02.426Z,6.90
2023-03-20T20:09:06.996Z,6.75
2023-03-20T20:12:09.891Z,6.47
2023-03-20T20:15:14.065Z,6.43
2023-03-20T20:18:17.833Z,6.32
2023-03-20T20:22:09.798Z,7.50
2023-03-20T20:24:45.060Z,7.30
2023-03-20T20:27:48.240Z,7.38
2023-03-20T20:30:52.930Z,7.20
2023-03-20T20:34:38.637Z,6.95
2023-03-20T20:40:44.061Z,7.45
2023-03-20T20:44:18.394Z,7.22
2023-03-20T20:47:10.891Z,7.97
2023-03-20T20:50:14.822Z,7.50
2023-03-20T20:53:17.692Z,8.57
2023-03-20T20:56:22.054Z,8.20
2023-03-20T20:59:24.928Z,7.15
2023-03-20T21:02:29.193Z,7.53
2023-03-20T21:05:32.172Z,7.47
2023-03-20T21:08:36.584Z,8.30
2023-03-20T21:11:40.826Z,8.30
2023-03-20T21:14:44.647Z,9.02
2023-03-20T21:17:59.998Z,8.73
2023-03-20T21:21:07.724Z,8.73
2023-03-20T21:24:30.982Z,9.07
2023-03-20T21:27:36.767Z,9.20
2023-03-20T21:30:56.120Z,10.23
2023-03-20T21:34:06.481Z,9.93
2023-03-20T21:40:34.081Z,9.27
2023-03-20T21:43:39.568Z,9.23
2023-03-20T22:04:37.634Z,9.00
2023-03-20T22:07:53.761Z,9.10
2023-03-20T22:35:04.313Z,7.20
2023-03-20T22:47:42.217Z,8.15
2023-03-20T22:50:48.451Z,7.38
2023-03-20T22:53:51.450Z,7.30
2023-03-20T22:56:54.346Z,7.15
2023-03-20T22:59:57.169Z,7.03
2023-03-20T23:03:15.210Z,7.47
2023-03-20T23:06:23.992Z,6.53
2023-03-20T23:09:26.945Z,7.60
2023-03-20T23:12:29.841Z,7.43
2023-03-20T23:15:32.842Z,6.70
2023-03-20T23:18:35.912Z,6.95
2023-03-20T23:21:40.151Z,6.65
2023-03-20T23:24:43.042Z,6.72
2023-03-20T23:27:45.989Z,6.43
2023-03-20T23:30:59.851Z,6.93
2023-03-20T23:34:11.892Z,6.45
2023-03-20T23:37:16.442Z,7.15
2023-03-20T23:40:20.879Z,6.45
2023-03-20T23:43:24.556Z,6.45
2023-03-20T23:46:27.493Z,6.72
2023-03-20T23:49:30.703Z,6.90
2023-03-20T23:52:43.400Z,6.45
2023-03-20T23:55:55.140Z,6.68
2023-03-20T23:59:03.176Z,6.70
